Corinth, New York
Current Conditions -  °F | °C
As of 3:53 PM on Saturday 25 Oct 2014 (Local Time) from KGFL Reporting Station
Broken Clouds Broken Clouds  
Wind Chill: 60°   Ceiling: 4800
Heat Index: 60°   Visibility: 10mi
Dew Point: 46°   Wind: 10mph
Humidity: 60%   Direction: 190°S
Pressure: 29.6"   Gusts: NA
Location:  43.24°N, 73.83°W
Report Text: KGFL 251953Z AUTO 19009KT 10SM BKN048 16/08 A2960 RMK AO2 SLP027 T01560078
Loading
Personal Weather Stations






























Interactive Weather Map
Tropical Storm Tracking
New forecast layout! Learn more

10-Day Weather Forecast

Advertisements
Track Severe Weather on mobile